sensor_id;sensor_type;location;lat;lon;timestamp;P1;durP1;ratioP1;P2;durP2;ratioP2
10110;SDS011;5095;49.796;9.934;2023-04-19T00:00:47;6.93;;;4.53;;
10110;SDS011;5095;49.796;9.934;2023-04-19T00:03:14;6.53;;;4.67;;
10110;SDS011;5095;49.796;9.934;2023-04-19T00:05:41;7.37;;;4.47;;
10110;SDS011;5095;49.796;9.934;2023-04-19T00:08:07;6.43;;;4.47;;
10110;SDS011;5095;49.796;9.934;2023-04-19T00:10:33;6.87;;;4.60;;
10110;SDS011;5095;49.796;9.934;2023-04-19T00:13:03;6.80;;;5.23;;
10110;SDS011;5095;49.796;9.934;2023-04-19T00:15:29;7.17;;;4.83;;
10110;SDS011;5095;49.796;9.934;2023-04-19T00:17:55;7.13;;;4.90;;
10110;SDS011;5095;49.796;9.934;2023-04-19T00:20:21;6.97;;;4.47;;
10110;SDS011;5095;49.796;9.934;2023-04-19T00:22:47;7.10;;;4.83;;
10110;SDS011;5095;49.796;9.934;2023-04-19T00:25:14;6.03;;;3.73;;
10110;SDS011;5095;49.796;9.934;2023-04-19T00:27:40;7.10;;;4.93;;
10110;SDS011;5095;49.796;9.934;2023-04-19T00:30:06;6.60;;;5.10;;
10110;SDS011;5095;49.796;9.934;2023-04-19T00:32:32;7.30;;;5.10;;
10110;SDS011;5095;49.796;9.934;2023-04-19T00:34:58;6.77;;;4.63;;
10110;SDS011;5095;49.796;9.934;2023-04-19T00:37:24;6.40;;;4.53;;
10110;SDS011;5095;49.796;9.934;2023-04-19T00:39:50;7.23;;;5.20;;
10110;SDS011;5095;49.796;9.934;2023-04-19T00:42:16;7.93;;;5.23;;
10110;SDS011;5095;49.796;9.934;2023-04-19T00:44:42;6.90;;;4.93;;
10110;SDS011;5095;49.796;9.934;2023-04-19T00:47:08;5.77;;;4.67;;
10110;SDS011;5095;49.796;9.934;2023-04-19T00:49:34;7.60;;;5.30;;
10110;SDS011;5095;49.796;9.934;2023-04-19T00:52:00;8.80;;;5.27;;
10110;SDS011;5095;49.796;9.934;2023-04-19T00:54:27;8.97;;;5.87;;
10110;SDS011;5095;49.796;9.934;2023-04-19T00:56:53;7.30;;;5.43;;
10110;SDS011;5095;49.796;9.934;2023-04-19T00:59:19;6.97;;;5.00;;
10110;SDS011;5095;49.796;9.934;2023-04-19T01:01:45;7.40;;;5.30;;
10110;SDS011;5095;49.796;9.934;2023-04-19T01:04:12;8.50;;;5.37;;
10110;SDS011;5095;49.796;9.934;2023-04-19T01:06:38;7.73;;;5.73;;
10110;SDS011;5095;49.796;9.934;2023-04-19T01:09:04;7.70;;;5.70;;
10110;SDS011;5095;49.796;9.934;2023-04-19T01:11:30;7.87;;;5.67;;
10110;SDS011;5095;49.796;9.934;2023-04-19T01:13:56;8.03;;;5.73;;
10110;SDS011;5095;49.796;9.934;2023-04-19T01:16:25;7.90;;;6.03;;
10110;SDS011;5095;49.796;9.934;2023-04-19T01:18:52;8.00;;;5.43;;
10110;SDS011;5095;49.796;9.934;2023-04-19T01:21:18;9.27;;;6.53;;
10110;SDS011;5095;49.796;9.934;2023-04-19T01:23:44;8.67;;;6.10;;
10110;SDS011;5095;49.796;9.934;2023-04-19T01:26:10;8.77;;;6.20;;
10110;SDS011;5095;49.796;9.934;2023-04-19T01:28:36;9.20;;;6.30;;
10110;SDS011;5095;49.796;9.934;2023-04-19T01:31:02;8.70;;;6.40;;
10110;SDS011;5095;49.796;9.934;2023-04-19T01:33:28;8.47;;;6.30;;
10110;SDS011;5095;49.796;9.934;2023-04-19T01:35:54;9.63;;;6.50;;
10110;SDS011;5095;49.796;9.934;2023-04-19T01:38:20;9.20;;;6.43;;
10110;SDS011;5095;49.796;9.934;2023-04-19T01:40:46;9.00;;;6.23;;
10110;SDS011;5095;49.796;9.934;2023-04-19T01:43:16;8.40;;;6.30;;
10110;SDS011;5095;49.796;9.934;2023-04-19T01:45:42;9.67;;;6.57;;
10110;SDS011;5095;49.796;9.934;2023-04-19T01:48:09;8.00;;;6.20;;
10110;SDS011;5095;49.796;9.934;2023-04-19T01:50:35;8.30;;;6.43;;
10110;SDS011;5095;49.796;9.934;2023-04-19T01:53:04;8.73;;;6.63;;
10110;SDS011;5095;49.796;9.934;2023-04-19T01:55:30;9.23;;;6.73;;
10110;SDS011;5095;49.796;9.934;2023-04-19T01:57:56;8.77;;;6.23;;
10110;SDS011;5095;49.796;9.934;2023-04-19T02:00:22;10.30;;;6.50;;
10110;SDS011;5095;49.796;9.934;2023-04-19T02:02:48;9.93;;;6.63;;
10110;SDS011;5095;49.796;9.934;2023-04-19T02:05:14;8.80;;;6.70;;
10110;SDS011;5095;49.796;9.934;2023-04-19T02:07:40;8.97;;;6.80;;
10110;SDS011;5095;49.796;9.934;2023-04-19T02:10:08;8.67;;;6.50;;
10110;SDS011;5095;49.796;9.934;2023-04-19T02:12:35;10.27;;;7.27;;
10110;SDS011;5095;49.796;9.934;2023-04-19T02:15:01;9.23;;;6.53;;
10110;SDS011;5095;49.796;9.934;2023-04-19T02:17:30;9.63;;;7.20;;
10110;SDS011;5095;49.796;9.934;2023-04-19T02:19:56;9.03;;;6.67;;
10110;SDS011;5095;49.796;9.934;2023-04-19T02:22:28;9.53;;;6.80;;
10110;SDS011;5095;49.796;9.934;2023-04-19T02:24:54;9.57;;;6.53;;
10110;SDS011;5095;49.796;9.934;2023-04-19T02:27:19;10.17;;;6.83;;
10110;SDS011;5095;49.796;9.934;2023-04-19T02:29:46;8.97;;;6.90;;
10110;SDS011;5095;49.796;9.934;2023-04-19T02:32:12;9.10;;;6.90;;
10110;SDS011;5095;49.796;9.934;2023-04-19T02:34:38;9.93;;;6.50;;
10110;SDS011;5095;49.796;9.934;2023-04-19T02:37:04;8.07;;;6.43;;
10110;SDS011;5095;49.796;9.934;2023-04-19T02:39:30;8.73;;;6.37;;
10110;SDS011;5095;49.796;9.934;2023-04-19T02:41:56;9.23;;;6.63;;
10110;SDS011;5095;49.796;9.934;2023-04-19T02:44:22;10.57;;;6.90;;
10110;SDS011;5095;49.796;9.934;2023-04-19T02:46:48;11.53;;;7.30;;
10110;SDS011;5095;49.796;9.934;2023-04-19T02:49:15;11.07;;;7.80;;
10110;SDS011;5095;49.796;9.934;2023-04-19T02:51:41;11.13;;;8.13;;
10110;SDS011;5095;49.796;9.934;2023-04-19T02:54:07;10.93;;;7.27;;
10110;SDS011;5095;49.796;9.934;2023-04-19T02:56:33;11.23;;;7.40;;
10110;SDS011;5095;49.796;9.934;2023-04-19T02:58:59;10.43;;;7.57;;
10110;SDS011;5095;49.796;9.934;2023-04-19T03:01:25;11.23;;;7.97;;
10110;SDS011;5095;49.796;9.934;2023-04-19T03:03:51;12.73;;;8.67;;
10110;SDS011;5095;49.796;9.934;2023-04-19T03:06:17;12.80;;;8.37;;
10110;SDS011;5095;49.796;9.934;2023-04-19T03:08:43;10.97;;;8.03;;
10110;SDS011;5095;49.796;9.934;2023-04-19T03:11:10;12.00;;;7.50;;
10110;SDS011;5095;49.796;9.934;2023-04-19T03:13:36;9.53;;;7.07;;
10110;SDS011;5095;49.796;9.934;2023-04-19T03:16:03;12.27;;;8.37;;
10110;SDS011;5095;49.796;9.934;2023-04-19T03:18:30;10.63;;;7.50;;
10110;SDS011;5095;49.796;9.934;2023-04-19T03:20:56;11.03;;;7.60;;
10110;SDS011;5095;49.796;9.934;2023-04-19T03:23:22;10.23;;;7.23;;
10110;SDS011;5095;49.796;9.934;2023-04-19T03:25:48;12.23;;;8.07;;
10110;SDS011;5095;49.796;9.934;2023-04-19T03:28:15;13.30;;;8.20;;
10110;SDS011;5095;49.796;9.934;2023-04-19T03:30:41;13.57;;;8.80;;
10110;SDS011;5095;49.796;9.934;2023-04-19T03:33:07;15.60;;;10.70;;
10110;SDS011;5095;49.796;9.934;2023-04-19T03:35:33;11.70;;;8.00;;
10110;SDS011;5095;49.796;9.934;2023-04-19T03:37:59;10.90;;;7.30;;
10110;SDS011;5095;49.796;9.934;2023-04-19T03:40:25;11.37;;;7.97;;
10110;SDS011;5095;49.796;9.934;2023-04-19T03:42:51;10.30;;;7.43;;
10110;SDS011;5095;49.796;9.934;2023-04-19T03:45:17;11.77;;;7.20;;
10110;SDS011;5095;49.796;9.934;2023-04-19T03:47:43;14.10;;;8.77;;
10110;SDS011;5095;49.796;9.934;2023-04-19T03:50:09;14.70;;;9.33;;
10110;SDS011;5095;49.796;9.934;2023-04-19T03:52:35;10.67;;;7.50;;
10110;SDS011;5095;49.796;9.934;2023-04-19T03:55:01;12.93;;;8.73;;
10110;SDS011;5095;49.796;9.934;2023-04-19T03:57:27;10.67;;;7.20;;
10110;SDS011;5095;49.796;9.934;2023-04-19T03:59:53;9.20;;;7.00;;
10110;SDS011;5095;49.796;9.934;2023-04-19T04:02:19;10.37;;;7.53;;
10110;SDS011;5095;49.796;9.934;2023-04-19T04:04:45;14.17;;;8.43;;
10110;SDS011;5095;49.796;9.934;2023-04-19T04:07:11;13.50;;;7.53;;
10110;SDS011;5095;49.796;9.934;2023-04-19T04:09:37;11.83;;;8.27;;
10110;SDS011;5095;49.796;9.934;2023-04-19T04:12:03;9.40;;;7.23;;
10110;SDS011;5095;49.796;9.934;2023-04-19T04:14:29;19.00;;;9.60;;
10110;SDS011;5095;49.796;9.934;2023-04-19T04:16:55;14.63;;;8.13;;
10110;SDS011;5095;49.796;9.934;2023-04-19T04:19:21;12.53;;;7.83;;
10110;SDS011;5095;49.796;9.934;2023-04-19T04:21:47;11.63;;;8.03;;
10110;SDS011;5095;49.796;9.934;2023-04-19T04:24:14;15.20;;;8.23;;
10110;SDS011;5095;49.796;9.934;2023-04-19T04:26:41;11.10;;;7.57;;
10110;SDS011;5095;49.796;9.934;2023-04-19T04:29:07;11.60;;;7.87;;
10110;SDS011;5095;49.796;9.934;2023-04-19T04:31:33;11.23;;;7.63;;
10110;SDS011;5095;49.796;9.934;2023-04-19T04:34:00;11.93;;;8.03;;
10110;SDS011;5095;49.796;9.934;2023-04-19T04:36:26;10.53;;;8.07;;
10110;SDS011;5095;49.796;9.934;2023-04-19T04:38:53;11.33;;;7.60;;
10110;SDS011;5095;49.796;9.934;2023-04-19T04:41:21;10.50;;;7.57;;
10110;SDS011;5095;49.796;9.934;2023-04-19T04:43:47;11.57;;;7.67;;
10110;SDS011;5095;49.796;9.934;2023-04-19T04:46:15;12.47;;;7.70;;
10110;SDS011;5095;49.796;9.934;2023-04-19T04:48:41;11.60;;;6.93;;
10110;SDS011;5095;49.796;9.934;2023-04-19T04:51:07;8.30;;;6.07;;
10110;SDS011;5095;49.796;9.934;2023-04-19T04:53:33;27.50;;;11.33;;
10110;SDS011;5095;49.796;9.934;2023-04-19T04:55:59;12.33;;;7.17;;
10110;SDS011;5095;49.796;9.934;2023-04-19T04:58:25;9.23;;;6.60;;
10110;SDS011;5095;49.796;9.934;2023-04-19T05:00:51;9.50;;;6.80;;
10110;SDS011;5095;49.796;9.934;2023-04-19T05:03:17;11.17;;;6.50;;
10110;SDS011;5095;49.796;9.934;2023-04-19T05:05:44;10.37;;;6.97;;
10110;SDS011;5095;49.796;9.934;2023-04-19T05:08:10;8.93;;;6.40;;
10110;SDS011;5095;49.796;9.934;2023-04-19T05:10:36;15.77;;;8.30;;
10110;SDS011;5095;49.796;9.934;2023-04-19T05:13:02;9.90;;;6.80;;
10110;SDS011;5095;49.796;9.934;2023-04-19T05:15:28;9.93;;;6.93;;
10110;SDS011;5095;49.796;9.934;2023-04-19T05:17:54;9.97;;;6.47;;
10110;SDS011;5095;49.796;9.934;2023-04-19T05:20:20;10.03;;;6.67;;
10110;SDS011;5095;49.796;9.934;2023-04-19T05:22:46;11.50;;;6.33;;
10110;SDS011;5095;49.796;9.934;2023-04-19T05:25:12;8.40;;;5.80;;
10110;SDS011;5095;49.796;9.934;2023-04-19T05:27:38;12.97;;;7.53;;
10110;SDS011;5095;49.796;9.934;2023-04-19T05:30:05;10.20;;;7.03;;
10110;SDS011;5095;49.796;9.934;2023-04-19T05:32:31;11.77;;;6.97;;
10110;SDS011;5095;49.796;9.934;2023-04-19T05:34:57;12.57;;;7.57;;
10110;SDS011;5095;49.796;9.934;2023-04-19T05:37:23;9.70;;;7.57;;
10110;SDS011;5095;49.796;9.934;2023-04-19T05:39:49;10.33;;;7.00;;
10110;SDS011;5095;49.796;9.934;2023-04-19T05:42:15;10.20;;;7.47;;
10110;SDS011;5095;49.796;9.934;2023-04-19T05:44:41;10.73;;;7.80;;
10110;SDS011;5095;49.796;9.934;2023-04-19T05:47:07;9.40;;;7.23;;
10110;SDS011;5095;49.796;9.934;2023-04-19T05:49:33;10.53;;;7.90;;
10110;SDS011;5095;49.796;9.934;2023-04-19T05:51:59;9.17;;;7.40;;
10110;SDS011;5095;49.796;9.934;2023-04-19T05:54:25;9.57;;;7.17;;
10110;SDS011;5095;49.796;9.934;2023-04-19T05:56:52;10.37;;;7.50;;
10110;SDS011;5095;49.796;9.934;2023-04-19T05:59:18;9.27;;;7.33;;
10110;SDS011;5095;49.796;9.934;2023-04-19T06:01:44;9.87;;;7.70;;
10110;SDS011;5095;49.796;9.934;2023-04-19T06:04:10;9.43;;;7.03;;
10110;SDS011;5095;49.796;9.934;2023-04-19T06:06:36;10.83;;;7.17;;
10110;SDS011;5095;49.796;9.934;2023-04-19T06:09:02;10.83;;;7.67;;
10110;SDS011;5095;49.796;9.934;2023-04-19T06:11:29;10.17;;;7.63;;
10110;SDS011;5095;49.796;9.934;2023-04-19T06:13:55;10.43;;;7.80;;
10110;SDS011;5095;49.796;9.934;2023-04-19T06:16:21;11.47;;;7.57;;
10110;SDS011;5095;49.796;9.934;2023-04-19T06:18:47;11.87;;;7.87;;
10110;SDS011;5095;49.796;9.934;2023-04-19T06:21:13;11.43;;;7.10;;
10110;SDS011;5095;49.796;9.934;2023-04-19T06:23:39;10.27;;;7.90;;
10110;SDS011;5095;49.796;9.934;2023-04-19T06:26:05;9.90;;;7.67;;
10110;SDS011;5095;49.796;9.934;2023-04-19T06:28:31;8.43;;;5.90;;
10110;SDS011;5095;49.796;9.934;2023-04-19T06:30:57;10.10;;;7.00;;
10110;SDS011;5095;49.796;9.934;2023-04-19T06:33:23;10.33;;;7.40;;
10110;SDS011;5095;49.796;9.934;2023-04-19T06:35:49;9.70;;;7.23;;
10110;SDS011;5095;49.796;9.934;2023-04-19T06:38:15;8.97;;;6.77;;
10110;SDS011;5095;49.796;9.934;2023-04-19T06:40:41;9.60;;;7.20;;
10110;SDS011;5095;49.796;9.934;2023-04-19T06:43:07;11.03;;;7.23;;
10110;SDS011;5095;49.796;9.934;2023-04-19T06:45:33;10.77;;;6.80;;
10110;SDS011;5095;49.796;9.934;2023-04-19T06:48:00;9.40;;;6.47;;
10110;SDS011;5095;49.796;9.934;2023-04-19T06:50:26;9.33;;;6.97;;
10110;SDS011;5095;49.796;9.934;2023-04-19T06:52:52;16.53;;;9.63;;
10110;SDS011;5095;49.796;9.934;2023-04-19T06:55:18;9.67;;;6.23;;
10110;SDS011;5095;49.796;9.934;2023-04-19T06:57:45;10.73;;;6.53;;
10110;SDS011;5095;49.796;9.934;2023-04-19T07:00:11;9.53;;;7.17;;
10110;SDS011;5095;49.796;9.934;2023-04-19T07:02:38;8.77;;;6.23;;
10110;SDS011;5095;49.796;9.934;2023-04-19T07:05:04;8.80;;;6.60;;
10110;SDS011;5095;49.796;9.934;2023-04-19T07:07:30;10.03;;;6.10;;
10110;SDS011;5095;49.796;9.934;2023-04-19T07:09:57;11.63;;;6.23;;
10110;SDS011;5095;49.796;9.934;2023-04-19T07:12:23;10.07;;;6.60;;
10110;SDS011;5095;49.796;9.934;2023-04-19T07:14:49;10.47;;;6.00;;
10110;SDS011;5095;49.796;9.934;2023-04-19T07:17:20;8.87;;;5.70;;
10110;SDS011;5095;49.796;9.934;2023-04-19T07:19:46;8.80;;;5.43;;
10110;SDS011;5095;49.796;9.934;2023-04-19T07:22:15;8.37;;;5.53;;
10110;SDS011;5095;49.796;9.934;2023-04-19T07:24:41;10.03;;;5.83;;
10110;SDS011;5095;49.796;9.934;2023-04-19T07:27:08;7.93;;;5.20;;
10110;SDS011;5095;49.796;9.934;2023-04-19T07:29:34;8.73;;;5.00;;
10110;SDS011;5095;49.796;9.934;2023-04-19T07:32:00;7.10;;;4.50;;
10110;SDS011;5095;49.796;9.934;2023-04-19T07:34:26;7.10;;;4.67;;
10110;SDS011;5095;49.796;9.934;2023-04-19T07:36:52;9.00;;;4.97;;
10110;SDS011;5095;49.796;9.934;2023-04-19T07:39:18;7.57;;;4.87;;
10110;SDS011;5095;49.796;9.934;2023-04-19T07:41:44;6.40;;;4.33;;
10110;SDS011;5095;49.796;9.934;2023-04-19T07:44:11;7.10;;;4.60;;
10110;SDS011;5095;49.796;9.934;2023-04-19T07:46:37;8.07;;;5.13;;
10110;SDS011;5095;49.796;9.934;2023-04-19T07:49:03;7.20;;;5.13;;
10110;SDS011;5095;49.796;9.934;2023-04-19T07:51:29;7.83;;;4.83;;
10110;SDS011;5095;49.796;9.934;2023-04-19T07:53:55;6.33;;;4.40;;
10110;SDS011;5095;49.796;9.934;2023-04-19T07:56:22;7.80;;;5.07;;
10110;SDS011;5095;49.796;9.934;2023-04-19T07:58:50;6.60;;;4.80;;
10110;SDS011;5095;49.796;9.934;2023-04-19T08:01:16;8.57;;;4.87;;
10110;SDS011;5095;49.796;9.934;2023-04-19T08:03:42;9.37;;;4.80;;
10110;SDS011;5095;49.796;9.934;2023-04-19T08:06:08;6.80;;;4.80;;
10110;SDS011;5095;49.796;9.934;2023-04-19T08:08:34;8.13;;;4.40;;
10110;SDS011;5095;49.796;9.934;2023-04-19T08:11:01;6.00;;;4.50;;
10110;SDS011;5095;49.796;9.934;2023-04-19T08:13:28;7.27;;;5.00;;
10110;SDS011;5095;49.796;9.934;2023-04-19T08:15:54;35.67;;;23.93;;
10110;SDS011;5095;49.796;9.934;2023-04-19T08:18:20;9.03;;;5.50;;
10110;SDS011;5095;49.796;9.934;2023-04-19T08:20:46;7.63;;;4.73;;
10110;SDS011;5095;49.796;9.934;2023-04-19T08:23:13;8.03;;;4.83;;
10110;SDS011;5095;49.796;9.934;2023-04-19T08:25:39;13.07;;;6.10;;
10110;SDS011;5095;49.796;9.934;2023-04-19T08:28:05;6.20;;;4.53;;
10110;SDS011;5095;49.796;9.934;2023-04-19T08:30:31;9.50;;;4.77;;
10110;SDS011;5095;49.796;9.934;2023-04-19T08:32:57;7.90;;;4.77;;
10110;SDS011;5095;49.796;9.934;2023-04-19T08:35:23;8.37;;;5.00;;
10110;SDS011;5095;49.796;9.934;2023-04-19T08:37:49;7.33;;;4.60;;
10110;SDS011;5095;49.796;9.934;2023-04-19T08:40:15;13.03;;;5.67;;
10110;SDS011;5095;49.796;9.934;2023-04-19T08:42:42;7.60;;;4.70;;
10110;SDS011;5095;49.796;9.934;2023-04-19T08:45:08;5.93;;;4.37;;
10110;SDS011;5095;49.796;9.934;2023-04-19T08:47:37;6.77;;;4.77;;
10110;SDS011;5095;49.796;9.934;2023-04-19T08:50:03;7.40;;;5.00;;
10110;SDS011;5095;49.796;9.934;2023-04-19T08:52:32;6.83;;;4.50;;
10110;SDS011;5095;49.796;9.934;2023-04-19T08:55:00;7.23;;;4.37;;
10110;SDS011;5095;49.796;9.934;2023-04-19T08:57:29;7.10;;;4.80;;
10110;SDS011;5095;49.796;9.934;2023-04-19T08:59:55;5.77;;;4.03;;
10110;SDS011;5095;49.796;9.934;2023-04-19T09:02:22;8.37;;;4.53;;
10110;SDS011;5095;49.796;9.934;2023-04-19T09:04:48;9.37;;;4.93;;
10110;SDS011;5095;49.796;9.934;2023-04-19T09:07:24;5.33;;;3.97;;
10110;SDS011;5095;49.796;9.934;2023-04-19T09:10:03;6.77;;;4.67;;
10110;SDS011;5095;49.796;9.934;2023-04-19T09:12:29;6.07;;;4.20;;
10110;SDS011;5095;49.796;9.934;2023-04-19T09:14:55;8.47;;;4.93;;
10110;SDS011;5095;49.796;9.934;2023-04-19T09:17:21;6.20;;;4.23;;
10110;SDS011;5095;49.796;9.934;2023-04-19T09:19:48;4.77;;;3.70;;
10110;SDS011;5095;49.796;9.934;2023-04-19T09:22:14;5.60;;;3.90;;
10110;SDS011;5095;49.796;9.934;2023-04-19T09:24:40;6.97;;;4.43;;
10110;SDS011;5095;49.796;9.934;2023-04-19T09:27:06;6.70;;;4.13;;
10110;SDS011;5095;49.796;9.934;2023-04-19T09:29:35;10.40;;;4.70;;
10110;SDS011;5095;49.796;9.934;2023-04-19T09:32:01;5.80;;;4.27;;
10110;SDS011;5095;49.796;9.934;2023-04-19T09:34:28;8.90;;;3.70;;
10110;SDS011;5095;49.796;9.934;2023-04-19T09:36:54;5.43;;;3.43;;
10110;SDS011;5095;49.796;9.934;2023-04-19T09:39:27;6.33;;;3.83;;
10110;SDS011;5095;49.796;9.934;2023-04-19T09:41:53;5.77;;;3.80;;
10110;SDS011;5095;49.796;9.934;2023-04-19T09:44:20;7.73;;;4.00;;
10110;SDS011;5095;49.796;9.934;2023-04-19T09:46:46;7.57;;;5.13;;
10110;SDS011;5095;49.796;9.934;2023-04-19T09:51:42;4.90;;;3.70;;
10110;SDS011;5095;49.796;9.934;2023-04-19T09:54:08;11.97;;;9.03;;
10110;SDS011;5095;49.796;9.934;2023-04-19T09:56:35;11.77;;;6.60;;
10110;SDS011;5095;49.796;9.934;2023-04-19T09:59:04;7.70;;;4.80;;
10110;SDS011;5095;49.796;9.934;2023-04-19T10:02:13;6.43;;;3.97;;
10110;SDS011;5095;49.796;9.934;2023-04-19T10:04:20;6.57;;;4.30;;
10110;SDS011;5095;49.796;9.934;2023-04-19T10:06:51;5.83;;;3.67;;
10110;SDS011;5095;49.796;9.934;2023-04-19T10:09:18;5.57;;;3.87;;
10110;SDS011;5095;49.796;9.934;2023-04-19T10:11:48;9.23;;;4.00;;
10110;SDS011;5095;49.796;9.934;2023-04-19T10:14:15;5.57;;;3.80;;
10110;SDS011;5095;49.796;9.934;2023-04-19T10:16:41;5.00;;;3.57;;
10110;SDS011;5095;49.796;9.934;2023-04-19T10:19:11;5.47;;;3.90;;
10110;SDS011;5095;49.796;9.934;2023-04-19T10:21:38;6.40;;;3.80;;
10110;SDS011;5095;49.796;9.934;2023-04-19T10:24:06;4.97;;;3.93;;
10110;SDS011;5095;49.796;9.934;2023-04-19T10:29:53;6.90;;;4.50;;
10110;SDS011;5095;49.796;9.934;2023-04-19T10:32:04;6.23;;;4.30;;
10110;SDS011;5095;49.796;9.934;2023-04-19T10:34:37;11.07;;;6.57;;
10110;SDS011;5095;49.796;9.934;2023-04-19T10:37:04;7.17;;;4.70;;
10110;SDS011;5095;49.796;9.934;2023-04-19T10:39:39;9.73;;;4.70;;
10110;SDS011;5095;49.796;9.934;2023-04-19T10:42:06;6.27;;;4.43;;
10110;SDS011;5095;49.796;9.934;2023-04-19T10:44:32;5.53;;;4.03;;
10110;SDS011;5095;49.796;9.934;2023-04-19T10:46:58;6.00;;;3.90;;
10110;SDS011;5095;49.796;9.934;2023-04-19T10:49:25;8.17;;;4.50;;
10110;SDS011;5095;49.796;9.934;2023-04-19T10:51:51;5.80;;;4.10;;
10110;SDS011;5095;49.796;9.934;2023-04-19T10:54:28;5.70;;;3.77;;
10110;SDS011;5095;49.796;9.934;2023-04-19T10:59:21;8.10;;;4.90;;
10110;SDS011;5095;49.796;9.934;2023-04-19T11:04:17;5.73;;;4.00;;
10110;SDS011;5095;49.796;9.934;2023-04-19T11:09:25;7.87;;;4.77;;
10110;SDS011;5095;49.796;9.934;2023-04-19T11:11:51;7.17;;;4.50;;
10110;SDS011;5095;49.796;9.934;2023-04-19T11:14:19;7.70;;;5.10;;
10110;SDS011;5095;49.796;9.934;2023-04-19T11:16:46;8.80;;;5.13;;
10110;SDS011;5095;49.796;9.934;2023-04-19T11:19:18;7.93;;;4.10;;
10110;SDS011;5095;49.796;9.934;2023-04-19T11:21:44;6.93;;;4.30;;
10110;SDS011;5095;49.796;9.934;2023-04-19T11:24:11;7.90;;;4.30;;
10110;SDS011;5095;49.796;9.934;2023-04-19T11:26:38;8.07;;;4.70;;
10110;SDS011;5095;49.796;9.934;2023-04-19T11:29:07;8.53;;;4.70;;
10110;SDS011;5095;49.796;9.934;2023-04-19T11:31:34;6.13;;;3.63;;
10110;SDS011;5095;49.796;9.934;2023-04-19T11:34:03;5.70;;;3.40;;
10110;SDS011;5095;49.796;9.934;2023-04-19T11:36:30;9.23;;;3.40;;
10110;SDS011;5095;49.796;9.934;2023-04-19T11:38:56;3.57;;;2.70;;
10110;SDS011;5095;49.796;9.934;2023-04-19T11:41:22;5.83;;;3.13;;
10110;SDS011;5095;49.796;9.934;2023-04-19T11:43:48;5.93;;;2.93;;
10110;SDS011;5095;49.796;9.934;2023-04-19T11:46:14;4.07;;;2.70;;
10110;SDS011;5095;49.796;9.934;2023-04-19T11:48:53;3.90;;;2.27;;
10110;SDS011;5095;49.796;9.934;2023-04-19T11:51:19;4.80;;;3.00;;
10110;SDS011;5095;49.796;9.934;2023-04-19T11:53:45;3.47;;;2.27;;
10110;SDS011;5095;49.796;9.934;2023-04-19T11:56:11;3.23;;;2.53;;
10110;SDS011;5095;49.796;9.934;2023-04-19T11:58:45;3.87;;;2.37;;
10110;SDS011;5095;49.796;9.934;2023-04-19T12:01:21;3.70;;;2.40;;
10110;SDS011;5095;49.796;9.934;2023-04-19T12:03:49;2.90;;;2.20;;
10110;SDS011;5095;49.796;9.934;2023-04-19T12:06:17;4.60;;;2.53;;
10110;SDS011;5095;49.796;9.934;2023-04-19T12:08:44;3.67;;;1.93;;
10110;SDS011;5095;49.796;9.934;2023-04-19T12:11:15;2.77;;;2.30;;
10110;SDS011;5095;49.796;9.934;2023-04-19T12:13:41;3.80;;;2.40;;
10110;SDS011;5095;49.796;9.934;2023-04-19T12:16:08;6.03;;;2.50;;
10110;SDS011;5095;49.796;9.934;2023-04-19T12:18:44;6.57;;;2.33;;
10110;SDS011;5095;49.796;9.934;2023-04-19T12:21:22;3.97;;;1.83;;
10110;SDS011;5095;49.796;9.934;2023-04-19T12:23:49;3.40;;;2.00;;
10110;SDS011;5095;49.796;9.934;2023-04-19T12:26:17;3.47;;;2.53;;
10110;SDS011;5095;49.796;9.934;2023-04-19T12:28:43;6.73;;;3.80;;
10110;SDS011;5095;49.796;9.934;2023-04-19T12:31:09;3.17;;;2.00;;
10110;SDS011;5095;49.796;9.934;2023-04-19T12:33:35;11.63;;;7.97;;
10110;SDS011;5095;49.796;9.934;2023-04-19T12:36:01;3.57;;;1.80;;
10110;SDS011;5095;49.796;9.934;2023-04-19T12:38:27;2.90;;;1.80;;
10110;SDS011;5095;49.796;9.934;2023-04-19T12:40:53;3.13;;;1.93;;
10110;SDS011;5095;49.796;9.934;2023-04-19T12:43:20;3.97;;;2.10;;
10110;SDS011;5095;49.796;9.934;2023-04-19T12:45:46;2.53;;;1.70;;
10110;SDS011;5095;49.796;9.934;2023-04-19T12:48:12;3.50;;;1.80;;
10110;SDS011;5095;49.796;9.934;2023-04-19T12:50:38;4.83;;;1.53;;
10110;SDS011;5095;49.796;9.934;2023-04-19T12:53:04;3.37;;;2.07;;
10110;SDS011;5095;49.796;9.934;2023-04-19T12:55:31;2.33;;;1.40;;
10110;SDS011;5095;49.796;9.934;2023-04-19T12:57:57;2.90;;;1.77;;
10110;SDS011;5095;49.796;9.934;2023-04-19T13:00:23;3.00;;;1.93;;
10110;SDS011;5095;49.796;9.934;2023-04-19T13:02:49;3.67;;;1.20;;
10110;SDS011;5095;49.796;9.934;2023-04-19T13:05:15;1.50;;;1.20;;
10110;SDS011;5095;49.796;9.934;2023-04-19T13:07:41;1.30;;;1.10;;
10110;SDS011;5095;49.796;9.934;2023-04-19T13:10:07;1.43;;;1.10;;
10110;SDS011;5095;49.796;9.934;2023-04-19T13:12:34;3.00;;;1.20;;
10110;SDS011;5095;49.796;9.934;2023-04-19T13:15:00;1.63;;;1.20;;
10110;SDS011;5095;49.796;9.934;2023-04-19T13:17:26;2.33;;;1.27;;
10110;SDS011;5095;49.796;9.934;2023-04-19T13:19:52;2.00;;;1.20;;
10110;SDS011;5095;49.796;9.934;2023-04-19T13:22:18;1.30;;;1.13;;
10110;SDS011;5095;49.796;9.934;2023-04-19T13:24:44;3.83;;;1.10;;
10110;SDS011;5095;49.796;9.934;2023-04-19T13:27:10;11.40;;;8.37;;
10110;SDS011;5095;49.796;9.934;2023-04-19T13:29:36;3.03;;;1.13;;
10110;SDS011;5095;49.796;9.934;2023-04-19T13:32:02;4.23;;;1.30;;
10110;SDS011;5095;49.796;9.934;2023-04-19T13:34:31;1.60;;;1.10;;
10110;SDS011;5095;49.796;9.934;2023-04-19T13:36:57;5.63;;;1.33;;
10110;SDS011;5095;49.796;9.934;2023-04-19T13:39:23;1.20;;;1.00;;
10110;SDS011;5095;49.796;9.934;2023-04-19T13:41:50;1.63;;;1.30;;
10110;SDS011;5095;49.796;9.934;2023-04-19T13:44:16;1.97;;;1.00;;
10110;SDS011;5095;49.796;9.934;2023-04-19T13:46:42;3.53;;;1.17;;
10110;SDS011;5095;49.796;9.934;2023-04-19T13:49:08;3.13;;;1.00;;
10110;SDS011;5095;49.796;9.934;2023-04-19T13:51:34;3.73;;;2.20;;
10110;SDS011;5095;49.796;9.934;2023-04-19T13:54:00;4.00;;;2.13;;
10110;SDS011;5095;49.796;9.934;2023-04-19T13:56:26;5.13;;;1.73;;
10110;SDS011;5095;49.796;9.934;2023-04-19T13:58:52;2.03;;;1.50;;
10110;SDS011;5095;49.796;9.934;2023-04-19T14:01:18;1.57;;;1.13;;
10110;SDS011;5095;49.796;9.934;2023-04-19T14:03:44;1.63;;;1.00;;
10110;SDS011;5095;49.796;9.934;2023-04-19T14:06:10;2.17;;;1.17;;
10110;SDS011;5095;49.796;9.934;2023-04-19T14:08:36;3.13;;;1.60;;
10110;SDS011;5095;49.796;9.934;2023-04-19T14:11:02;3.83;;;1.20;;
10110;SDS011;5095;49.796;9.934;2023-04-19T14:13:28;4.17;;;1.53;;
10110;SDS011;5095;49.796;9.934;2023-04-19T14:15:55;2.00;;;1.20;;
10110;SDS011;5095;49.796;9.934;2023-04-19T14:18:21;2.23;;;1.20;;
10110;SDS011;5095;49.796;9.934;2023-04-19T14:20:47;7.27;;;4.07;;
10110;SDS011;5095;49.796;9.934;2023-04-19T14:23:13;3.93;;;1.20;;
10110;SDS011;5095;49.796;9.934;2023-04-19T14:25:39;2.03;;;1.50;;
10110;SDS011;5095;49.796;9.934;2023-04-19T14:28:05;2.37;;;1.13;;
10110;SDS011;5095;49.796;9.934;2023-04-19T14:30:31;6.10;;;1.47;;
10110;SDS011;5095;49.796;9.934;2023-04-19T14:32:57;2.07;;;1.30;;
10110;SDS011;5095;49.796;9.934;2023-04-19T14:35:23;6.77;;;1.50;;
10110;SDS011;5095;49.796;9.934;2023-04-19T14:37:49;2.10;;;1.30;;
10110;SDS011;5095;49.796;9.934;2023-04-19T14:40:15;3.28;;;1.63;;
10110;SDS011;5095;49.796;9.934;2023-04-19T14:42:43;1.60;;;1.43;;
10110;SDS011;5095;49.796;9.934;2023-04-19T14:45:10;5.33;;;2.17;;
10110;SDS011;5095;49.796;9.934;2023-04-19T14:47:36;2.30;;;1.47;;
10110;SDS011;5095;49.796;9.934;2023-04-19T14:50:02;2.37;;;1.40;;
10110;SDS011;5095;49.796;9.934;2023-04-19T14:52:28;4.70;;;1.60;;
10110;SDS011;5095;49.796;9.934;2023-04-19T14:54:54;2.70;;;1.50;;
10110;SDS011;5095;49.796;9.934;2023-04-19T14:57:21;2.13;;;1.33;;
10110;SDS011;5095;49.796;9.934;2023-04-19T14:59:47;3.20;;;1.27;;
10110;SDS011;5095;49.796;9.934;2023-04-19T15:02:13;2.70;;;1.47;;
10110;SDS011;5095;49.796;9.934;2023-04-19T15:04:39;2.33;;;1.50;;
10110;SDS011;5095;49.796;9.934;2023-04-19T15:07:05;1.77;;;1.43;;